FYC502 ORBI-OSDI
Flight info
| Callsign | FYC502 |
|---|---|
| Flight time | 1h 12m |
| Altitude | 36000 |
| Route | DELMI G202 PUSTO DCT RAPLU DCT MODIK DCT TAN |
| Aircraft | A320/M-SDE3FGHIRWY/LB1 |
Departure
| Time | 2026-04-20 15:30 |
|---|---|
| Airport | Baghdad International Airport / New Al Muthana Air Base (ORBI) |
Arrival
| Time | 2026-04-20 16:43 |
|---|---|
| Airport | Damascus International Airport (OSDI) |
| Time | Latitude | Longitude | Altitude | Speed | Heading |
|---|---|---|---|---|---|
| 2026-04-20 15:18 | 33.26993 | 44.23018 | 139 ft | 0 kts | 137° |
| 2026-04-20 15:19 | 33.26994 | 44.23017 | 139 ft | 2 kts | 137° |
| 2026-04-20 15:20 | 33.27012 | 44.22997 | 139 ft | 4 kts | 138° |
| 2026-04-20 15:20 | 33.27032 | 44.22975 | 139 ft | 4 kts | 137° |
| 2026-04-20 15:20 | 33.27051 | 44.22953 | 139 ft | 4 kts | 132° |
| 2026-04-20 15:20 | 33.27068 | 44.22928 | 139 ft | 4 kts | 121° |
| 2026-04-20 15:21 | 33.27078 | 44.22899 | 139 ft | 4 kts | 84° |
| 2026-04-20 15:21 | 33.27074 | 44.22884 | 139 ft | 1 kts | 59° |
| 2026-04-20 15:21 | 33.27073 | 44.22882 | 139 ft | 0 kts | 59° |
| 2026-04-20 15:23 | 33.27094 | 44.22923 | 139 ft | 12 kts | 59° |
| 2026-04-20 15:24 | 33.27141 | 44.23019 | 139 ft | 14 kts | 60° |
| 2026-04-20 15:24 | 33.27205 | 44.23157 | 140 ft | 24 kts | 61° |
| 2026-04-20 15:24 | 33.27285 | 44.23322 | 140 ft | 23 kts | 60° |
| 2026-04-20 15:24 | 33.27365 | 44.23490 | 139 ft | 23 kts | 57° |
| 2026-04-20 15:25 | 33.27495 | 44.23467 | 139 ft | 22 kts | 330° |
| 2026-04-20 15:25 | 33.27632 | 44.23374 | 139 ft | 23 kts | 330° |
| 2026-04-20 15:25 | 33.27777 | 44.23275 | 140 ft | 25 kts | 330° |
| 2026-04-20 15:25 | 33.27931 | 44.23167 | 139 ft | 26 kts | 331° |
| 2026-04-20 15:26 | 33.28096 | 44.23059 | 139 ft | 28 kts | 328° |
| 2026-04-20 15:26 | 33.28189 | 44.22991 | 139 ft | 9 kts | 329° |
| 2026-04-20 15:26 | 33.28239 | 44.22955 | 139 ft | 8 kts | 329° |
| 2026-04-20 15:26 | 33.28279 | 44.22953 | 139 ft | 1 kts | 26° |
| 2026-04-20 15:27 | 33.28285 | 44.22958 | 139 ft | 2 kts | 38° |
| 2026-04-20 15:27 | 33.28294 | 44.22971 | 139 ft | 2 kts | 52° |
| 2026-04-20 15:27 | 33.28301 | 44.22985 | 138 ft | 4 kts | 60° |
| 2026-04-20 15:27 | 33.28314 | 44.23010 | 138 ft | 0 kts | 60° |
| 2026-04-20 15:28 | 33.28314 | 44.23012 | 138 ft | 0 kts | 60° |
| 2026-04-20 15:28 | 33.28317 | 44.23017 | 138 ft | 1 kts | 60° |
| 2026-04-20 15:28 | 33.28321 | 44.23026 | 138 ft | 2 kts | 60° |
| 2026-04-20 15:28 | 33.28335 | 44.23056 | 137 ft | 6 kts | 60° |
| 2026-04-20 15:29 | 33.28354 | 44.23129 | 136 ft | 11 kts | 97° |
| 2026-04-20 15:29 | 33.28335 | 44.23156 | 136 ft | 0 kts | 146° |
| 2026-04-20 15:29 | 33.28270 | 44.23193 | 136 ft | 32 kts | 152° |
| 2026-04-20 15:30 | 33.27855 | 44.23479 | 140 ft | 101 kts | 149° |
| 2026-04-20 15:30 | 33.27081 | 44.24010 | 140 ft | 153 kts | 150° |
| 2026-04-20 15:30 | 33.26041 | 44.24726 | 316 ft | 181 kts | 149° |
| 2026-04-20 15:30 | 33.24964 | 44.25457 | 1086 ft | 176 kts | 148° |
| 2026-04-20 15:31 | 33.23872 | 44.26204 | 1647 ft | 191 kts | 152° |
| 2026-04-20 15:31 | 33.22525 | 44.26526 | 1942 ft | 216 kts | 186° |
| 2026-04-20 15:31 | 33.21076 | 44.25791 | 2288 ft | 243 kts | 219° |
| 2026-04-20 15:31 | 33.20055 | 44.24103 | 2902 ft | 259 kts | 249° |
| 2026-04-20 15:32 | 33.19770 | 44.21991 | 3904 ft | 260 kts | 274° |
| 2026-04-20 15:32 | 33.20010 | 44.19858 | 4927 ft | 258 kts | 278° |
| 2026-04-20 15:32 | 33.20285 | 44.17734 | 5900 ft | 260 kts | 277° |
| 2026-04-20 15:32 | 33.20565 | 44.15602 | 6791 ft | 261 kts | 276° |
| 2026-04-20 15:33 | 33.20845 | 44.13447 | 7643 ft | 263 kts | 276° |
| 2026-04-20 15:33 | 33.21124 | 44.11272 | 8512 ft | 266 kts | 276° |
| 2026-04-20 15:33 | 33.21405 | 44.09076 | 9375 ft | 269 kts | 276° |
| 2026-04-20 15:33 | 33.21691 | 44.06858 | 10175 ft | 272 kts | 276° |
| 2026-04-20 15:34 | 33.21986 | 44.04542 | 10493 ft | 294 kts | 276° |
| 2026-04-20 15:34 | 33.22300 | 44.02054 | 10908 ft | 309 kts | 276° |
| 2026-04-20 15:34 | 33.22624 | 43.99493 | 11617 ft | 314 kts | 276° |
| 2026-04-20 15:34 | 33.22956 | 43.96900 | 12349 ft | 318 kts | 276° |
| 2026-04-20 15:35 | 33.23293 | 43.94271 | 13090 ft | 322 kts | 276° |
| 2026-04-20 15:35 | 33.23634 | 43.91609 | 13787 ft | 326 kts | 276° |
| 2026-04-20 15:35 | 33.23973 | 43.88920 | 14458 ft | 328 kts | 275° |
| 2026-04-20 15:35 | 33.24309 | 43.86219 | 15139 ft | 330 kts | 275° |
| 2026-04-20 15:36 | 33.24647 | 43.83495 | 15813 ft | 332 kts | 275° |
| 2026-04-20 15:36 | 33.24988 | 43.80756 | 16522 ft | 334 kts | 275° |
| 2026-04-20 15:36 | 33.25325 | 43.78042 | 17205 ft | 336 kts | 275° |
| 2026-04-20 15:36 | 33.25671 | 43.75274 | 17875 ft | 338 kts | 275° |
| 2026-04-20 15:37 | 33.26020 | 43.72493 | 18466 ft | 340 kts | 275° |
| 2026-04-20 15:37 | 33.26374 | 43.69693 | 19037 ft | 342 kts | 275° |
| 2026-04-20 15:37 | 33.26729 | 43.66877 | 19616 ft | 344 kts | 274° |
| 2026-04-20 15:37 | 33.27082 | 43.64042 | 20186 ft | 346 kts | 274° |
| 2026-04-20 15:38 | 33.27434 | 43.61184 | 20778 ft | 348 kts | 274° |
| 2026-04-20 15:38 | 33.27787 | 43.58313 | 21356 ft | 350 kts | 274° |
| 2026-04-20 15:38 | 33.28142 | 43.55427 | 21911 ft | 353 kts | 274° |
| 2026-04-20 15:38 | 33.28498 | 43.52517 | 22468 ft | 355 kts | 274° |
| 2026-04-20 15:39 | 33.28859 | 43.49588 | 23020 ft | 357 kts | 274° |
| 2026-04-20 15:39 | 33.29225 | 43.46641 | 23523 ft | 360 kts | 274° |
| 2026-04-20 15:39 | 33.29592 | 43.43670 | 23961 ft | 362 kts | 274° |
| 2026-04-20 15:39 | 33.29957 | 43.40685 | 24391 ft | 365 kts | 274° |
| 2026-04-20 15:40 | 33.30322 | 43.37670 | 24795 ft | 367 kts | 274° |
| 2026-04-20 15:40 | 33.30688 | 43.34640 | 25202 ft | 370 kts | 274° |
| 2026-04-20 15:40 | 33.31059 | 43.31592 | 25607 ft | 372 kts | 274° |
| 2026-04-20 15:40 | 33.31433 | 43.28523 | 26002 ft | 374 kts | 274° |
| 2026-04-20 15:41 | 33.31806 | 43.25440 | 26382 ft | 376 kts | 274° |
| 2026-04-20 15:41 | 33.32173 | 43.22381 | 26781 ft | 377 kts | 273° |
| 2026-04-20 15:41 | 33.32466 | 43.19264 | 27156 ft | 378 kts | 271° |
| 2026-04-20 15:41 | 33.32675 | 43.16116 | 27536 ft | 380 kts | 270° |
| 2026-04-20 15:42 | 33.32838 | 43.12959 | 27900 ft | 381 kts | 269° |
| 2026-04-20 15:42 | 33.32988 | 43.09782 | 28259 ft | 384 kts | 270° |
| 2026-04-20 15:42 | 33.33147 | 43.06588 | 28611 ft | 386 kts | 270° |
| 2026-04-20 15:42 | 33.33321 | 43.03381 | 28927 ft | 388 kts | 270° |
| 2026-04-20 15:43 | 33.33508 | 43.00161 | 29323 ft | 389 kts | 270° |
| 2026-04-20 15:43 | 33.33702 | 42.96917 | 29667 ft | 391 kts | 271° |
| 2026-04-20 15:43 | 33.33900 | 42.93667 | 29961 ft | 393 kts | 271° |
| 2026-04-20 15:43 | 33.34096 | 42.90403 | 30224 ft | 394 kts | 271° |
| 2026-04-20 15:44 | 33.34291 | 42.87155 | 30469 ft | 396 kts | 271° |
| 2026-04-20 15:44 | 33.34487 | 42.83856 | 30722 ft | 398 kts | 271° |
| 2026-04-20 15:44 | 33.34679 | 42.80551 | 30960 ft | 399 kts | 270° |
| 2026-04-20 15:44 | 33.34868 | 42.77227 | 31181 ft | 401 kts | 270° |
| 2026-04-20 15:45 | 33.35054 | 42.73900 | 31492 ft | 401 kts | 270° |
| 2026-04-20 15:45 | 33.35209 | 42.70569 | 31822 ft | 400 kts | 270° |
| 2026-04-20 15:45 | 33.35334 | 42.67256 | 32153 ft | 399 kts | 269° |
| 2026-04-20 15:45 | 33.35445 | 42.63945 | 32483 ft | 398 kts | 269° |
| 2026-04-20 15:46 | 33.35550 | 42.60639 | 32828 ft | 397 kts | 269° |
| 2026-04-20 15:46 | 33.35658 | 42.57339 | 33148 ft | 397 kts | 269° |
| 2026-04-20 15:46 | 33.35771 | 42.54041 | 33472 ft | 396 kts | 269° |
| 2026-04-20 15:46 | 33.35887 | 42.50744 | 33797 ft | 395 kts | 269° |
| 2026-04-20 15:47 | 33.36001 | 42.47473 | 34118 ft | 393 kts | 269° |
| 2026-04-20 15:47 | 33.36112 | 42.44257 | 34416 ft | 392 kts | 269° |
| 2026-04-20 15:47 | 33.36227 | 42.41004 | 34693 ft | 391 kts | 269° |
| 2026-04-20 15:47 | 33.36342 | 42.37761 | 34938 ft | 391 kts | 269° |
| 2026-04-20 15:48 | 33.36456 | 42.34515 | 35162 ft | 391 kts | 269° |
| 2026-04-20 15:48 | 33.36570 | 42.31269 | 35394 ft | 390 kts | 269° |
| 2026-04-20 15:48 | 33.36682 | 42.28032 | 35642 ft | 389 kts | 269° |
| 2026-04-20 15:48 | 33.36795 | 42.24794 | 35781 ft | 389 kts | 269° |
| 2026-04-20 15:49 | 33.36905 | 42.21579 | 35815 ft | 385 kts | 269° |
| 2026-04-20 15:49 | 33.37114 | 42.15178 | 35817 ft | 388 kts | 269° |
| 2026-04-20 15:50 | 33.37320 | 42.08637 | 35817 ft | 399 kts | 269° |
| 2026-04-20 15:50 | 33.37532 | 42.01940 | 35819 ft | 406 kts | 269° |
| 2026-04-20 15:51 | 33.37749 | 41.95174 | 35819 ft | 407 kts | 269° |
| 2026-04-20 15:51 | 33.37955 | 41.88409 | 35822 ft | 407 kts | 269° |
| 2026-04-20 15:52 | 33.38162 | 41.81646 | 35822 ft | 407 kts | 269° |
| 2026-04-20 15:52 | 33.38364 | 41.74880 | 35847 ft | 407 kts | 269° |
| 2026-04-20 15:53 | 33.38775 | 41.64759 | 35844 ft | 408 kts | 270° |
| 2026-04-20 15:53 | 33.39073 | 41.57976 | 35840 ft | 408 kts | 270° |
| 2026-04-20 15:54 | 33.39345 | 41.51192 | 35848 ft | 408 kts | 270° |
| 2026-04-20 15:54 | 33.39619 | 41.44400 | 35836 ft | 408 kts | 270° |
| 2026-04-20 15:55 | 33.39888 | 41.37619 | 35841 ft | 408 kts | 270° |
| 2026-04-20 15:55 | 33.40147 | 41.30837 | 35863 ft | 408 kts | 270° |
| 2026-04-20 15:56 | 33.40401 | 41.24064 | 35858 ft | 407 kts | 270° |
| 2026-04-20 15:56 | 33.40655 | 41.17286 | 35857 ft | 407 kts | 270° |
| 2026-04-20 15:57 | 33.40908 | 41.10515 | 35874 ft | 407 kts | 270° |
| 2026-04-20 15:57 | 33.41150 | 41.03747 | 35864 ft | 407 kts | 270° |
| 2026-04-20 15:58 | 33.41395 | 40.96987 | 35861 ft | 406 kts | 270° |
| 2026-04-20 15:58 | 33.41593 | 40.91370 | 35838 ft | 406 kts | 270° |
| 2026-04-20 15:59 | 33.41872 | 40.83524 | 35863 ft | 406 kts | 270° |
| 2026-04-20 15:59 | 33.42110 | 40.76774 | 35854 ft | 406 kts | 270° |
| 2026-04-20 16:00 | 33.42294 | 40.71169 | 35864 ft | 405 kts | 270° |
| 2026-04-20 16:00 | 33.42518 | 40.64426 | 35864 ft | 405 kts | 270° |
| 2026-04-20 16:01 | 33.42742 | 40.57682 | 35865 ft | 405 kts | 270° |
| 2026-04-20 16:01 | 33.42961 | 40.50941 | 35866 ft | 405 kts | 270° |
| 2026-04-20 16:02 | 33.43166 | 40.44201 | 35881 ft | 405 kts | 270° |
| 2026-04-20 16:02 | 33.43372 | 40.37470 | 35875 ft | 405 kts | 270° |
| 2026-04-20 16:03 | 33.43577 | 40.30739 | 35845 ft | 404 kts | 270° |
| 2026-04-20 16:03 | 33.43785 | 40.24013 | 35878 ft | 404 kts | 270° |
| 2026-04-20 16:04 | 33.43986 | 40.17288 | 35877 ft | 404 kts | 270° |
| 2026-04-20 16:04 | 33.44183 | 40.10568 | 35876 ft | 404 kts | 270° |
| 2026-04-20 16:05 | 33.44375 | 40.03849 | 35874 ft | 404 kts | 270° |
| 2026-04-20 16:05 | 33.44569 | 39.97127 | 35884 ft | 404 kts | 270° |
| 2026-04-20 16:06 | 33.44747 | 39.90418 | 35878 ft | 403 kts | 270° |
| 2026-04-20 16:06 | 33.44925 | 39.83706 | 35877 ft | 403 kts | 270° |
| 2026-04-20 16:07 | 33.45103 | 39.76994 | 35892 ft | 403 kts | 270° |
| 2026-04-20 16:07 | 33.45279 | 39.70287 | 35884 ft | 403 kts | 270° |
| 2026-04-20 16:08 | 33.45444 | 39.63572 | 35884 ft | 403 kts | 270° |
| 2026-04-20 16:08 | 33.45609 | 39.56863 | 35901 ft | 403 kts | 270° |
| 2026-04-20 16:09 | 33.45773 | 39.50154 | 35892 ft | 403 kts | 270° |
| 2026-04-20 16:09 | 33.45935 | 39.43442 | 35890 ft | 403 kts | 270° |
| 2026-04-20 16:10 | 33.46091 | 39.36775 | 35887 ft | 403 kts | 270° |
| 2026-04-20 16:10 | 33.46236 | 39.30068 | 35895 ft | 402 kts | 270° |
| 2026-04-20 16:11 | 33.46381 | 39.23378 | 35891 ft | 402 kts | 270° |
| 2026-04-20 16:11 | 33.46527 | 39.16692 | 35868 ft | 401 kts | 270° |
| 2026-04-20 16:12 | 33.46667 | 39.10004 | 35885 ft | 401 kts | 270° |
| 2026-04-20 16:12 | 33.46799 | 39.03321 | 35878 ft | 401 kts | 270° |
| 2026-04-20 16:13 | 33.46982 | 38.96637 | 35882 ft | 402 kts | 271° |
| 2026-04-20 16:13 | 33.47275 | 38.89953 | 35885 ft | 402 kts | 271° |
| 2026-04-20 16:14 | 33.47562 | 38.83257 | 35899 ft | 402 kts | 271° |
| 2026-04-20 16:14 | 33.47816 | 38.76557 | 35899 ft | 402 kts | 271° |
| 2026-04-20 16:15 | 33.48068 | 38.69858 | 35899 ft | 402 kts | 271° |
| 2026-04-20 16:15 | 33.48120 | 38.63166 | 35914 ft | 401 kts | 265° |
| 2026-04-20 16:16 | 33.47741 | 38.56497 | 35894 ft | 401 kts | 265° |
| 2026-04-20 16:16 | 33.47371 | 38.49869 | 35899 ft | 401 kts | 266° |
| 2026-04-20 16:17 | 33.47002 | 38.43196 | 35903 ft | 401 kts | 265° |
| 2026-04-20 16:17 | 33.46621 | 38.36523 | 35901 ft | 401 kts | 265° |
| 2026-04-20 16:18 | 33.46232 | 38.29851 | 35904 ft | 401 kts | 265° |
| 2026-04-20 16:18 | 33.45842 | 38.23186 | 35905 ft | 401 kts | 265° |
| 2026-04-20 16:19 | 33.45444 | 38.16523 | 35914 ft | 401 kts | 265° |
| 2026-04-20 16:19 | 33.45113 | 38.09856 | 35894 ft | 401 kts | 266° |
| 2026-04-20 16:20 | 33.44820 | 38.03186 | 35901 ft | 401 kts | 266° |
| 2026-04-20 16:20 | 33.44515 | 37.96534 | 35014 ft | 402 kts | 266° |
| 2026-04-20 16:21 | 33.44354 | 37.93174 | 34045 ft | 406 kts | 266° |
| 2026-04-20 16:21 | 33.44191 | 37.89821 | 32560 ft | 404 kts | 266° |
| 2026-04-20 16:21 | 33.44027 | 37.86467 | 31566 ft | 403 kts | 266° |
| 2026-04-20 16:21 | 33.43860 | 37.83100 | 30850 ft | 406 kts | 266° |
| 2026-04-20 16:22 | 33.43690 | 37.79705 | 30147 ft | 409 kts | 266° |
| 2026-04-20 16:22 | 33.43519 | 37.76305 | 29365 ft | 410 kts | 266° |
| 2026-04-20 16:22 | 33.43345 | 37.72879 | 28559 ft | 413 kts | 266° |
| 2026-04-20 16:22 | 33.43172 | 37.69436 | 27799 ft | 416 kts | 266° |
| 2026-04-20 16:23 | 33.42999 | 37.65965 | 27040 ft | 419 kts | 266° |
| 2026-04-20 16:23 | 33.42824 | 37.62466 | 26304 ft | 424 kts | 266° |
| 2026-04-20 16:23 | 33.42656 | 37.58940 | 25557 ft | 425 kts | 268° |
| 2026-04-20 16:23 | 33.42966 | 37.55424 | 24853 ft | 429 kts | 283° |
| 2026-04-20 16:24 | 33.43806 | 37.51983 | 24176 ft | 431 kts | 285° |
| 2026-04-20 16:24 | 33.44674 | 37.48605 | 23520 ft | 429 kts | 285° |
| 2026-04-20 16:24 | 33.45545 | 37.45195 | 22742 ft | 427 kts | 285° |
| 2026-04-20 16:24 | 33.46399 | 37.41795 | 21971 ft | 424 kts | 285° |
| 2026-04-20 16:25 | 33.47236 | 37.38422 | 21223 ft | 421 kts | 285° |
| 2026-04-20 16:25 | 33.48056 | 37.35077 | 20498 ft | 417 kts | 285° |
| 2026-04-20 16:25 | 33.48863 | 37.31746 | 19780 ft | 414 kts | 285° |
| 2026-04-20 16:25 | 33.49653 | 37.28439 | 19081 ft | 411 kts | 285° |
| 2026-04-20 16:26 | 33.50426 | 37.25154 | 18401 ft | 409 kts | 285° |
| 2026-04-20 16:26 | 33.51185 | 37.21882 | 17655 ft | 407 kts | 285° |
| 2026-04-20 16:26 | 33.51924 | 37.18622 | 16889 ft | 404 kts | 285° |
| 2026-04-20 16:26 | 33.52661 | 37.15388 | 16143 ft | 401 kts | 285° |
| 2026-04-20 16:27 | 33.53397 | 37.12181 | 15413 ft | 397 kts | 285° |
| 2026-04-20 16:27 | 33.54132 | 37.09000 | 14703 ft | 394 kts | 285° |
| 2026-04-20 16:27 | 33.54854 | 37.05862 | 14010 ft | 384 kts | 285° |
| 2026-04-20 16:27 | 33.55558 | 37.02856 | 13114 ft | 367 kts | 285° |
| 2026-04-20 16:28 | 33.56227 | 36.99992 | 12145 ft | 355 kts | 285° |
| 2026-04-20 16:28 | 33.56873 | 36.97184 | 11187 ft | 345 kts | 285° |
| 2026-04-20 16:28 | 33.57497 | 36.94449 | 10384 ft | 333 kts | 285° |
| 2026-04-20 16:28 | 33.58084 | 36.91869 | 10112 ft | 308 kts | 285° |
| 2026-04-20 16:29 | 33.58623 | 36.89496 | 9980 ft | 284 kts | 285° |
| 2026-04-20 16:29 | 33.59140 | 36.87226 | 9638 ft | 280 kts | 285° |
| 2026-04-20 16:29 | 33.59647 | 36.85001 | 9113 ft | 274 kts | 285° |
| 2026-04-20 16:29 | 33.60152 | 36.82836 | 8599 ft | 267 kts | 288° |
| 2026-04-20 16:30 | 33.61025 | 36.80896 | 8062 ft | 263 kts | 303° |
| 2026-04-20 16:30 | 33.62030 | 36.79087 | 7561 ft | 258 kts | 292° |
| 2026-04-20 16:30 | 33.62333 | 36.77014 | 7199 ft | 251 kts | 264° |
| 2026-04-20 16:30 | 33.61739 | 36.75109 | 6864 ft | 246 kts | 237° |
| 2026-04-20 16:31 | 33.60400 | 36.73806 | 6478 ft | 255 kts | 211° |
| 2026-04-20 16:31 | 33.58762 | 36.72954 | 6049 ft | 257 kts | 207° |
| 2026-04-20 16:31 | 33.57310 | 36.71787 | 5617 ft | 250 kts | 230° |
| 2026-04-20 16:31 | 33.56166 | 36.70248 | 5348 ft | 243 kts | 234° |
| 2026-04-20 16:32 | 33.55069 | 36.68740 | 5125 ft | 237 kts | 232° |
| 2026-04-20 16:32 | 33.53989 | 36.67272 | 4981 ft | 234 kts | 232° |
| 2026-04-20 16:32 | 33.52924 | 36.65831 | 4740 ft | 228 kts | 232° |
| 2026-04-20 16:32 | 33.51882 | 36.64423 | 4460 ft | 225 kts | 232° |
| 2026-04-20 16:33 | 33.50849 | 36.63025 | 4162 ft | 223 kts | 232° |
| 2026-04-20 16:33 | 33.49829 | 36.61647 | 3862 ft | 220 kts | 232° |
| 2026-04-20 16:33 | 33.48793 | 36.60246 | 3571 ft | 227 kts | 232° |
| 2026-04-20 16:33 | 33.47750 | 36.58839 | 3252 ft | 223 kts | 232° |
| 2026-04-20 16:34 | 33.46701 | 36.57415 | 3939 ft | 233 kts | 232° |
| 2026-04-20 16:34 | 33.45591 | 36.55898 | 4660 ft | 252 kts | 232° |
| 2026-04-20 16:34 | 33.44403 | 36.54237 | 4981 ft | 266 kts | 233° |
| 2026-04-20 16:34 | 33.43476 | 36.52530 | 4998 ft | 226 kts | 253° |
| 2026-04-20 16:35 | 33.43389 | 36.50832 | 5002 ft | 191 kts | 282° |
| 2026-04-20 16:35 | 33.43763 | 36.49327 | 5013 ft | 199 kts | 295° |
| 2026-04-20 16:35 | 33.44696 | 36.48066 | 5011 ft | 212 kts | 324° |
| 2026-04-20 16:35 | 33.46063 | 36.47349 | 5003 ft | 222 kts | 348° |
| 2026-04-20 16:36 | 33.47614 | 36.47601 | 5007 ft | 234 kts | 21° |
| 2026-04-20 16:36 | 33.48918 | 36.48833 | 5009 ft | 246 kts | 46° |
| 2026-04-20 16:36 | 33.49906 | 36.50436 | 5001 ft | 237 kts | 51° |
| 2026-04-20 16:36 | 33.50859 | 36.52037 | 5006 ft | 235 kts | 51° |
| 2026-04-20 16:37 | 33.51820 | 36.53614 | 5008 ft | 233 kts | 50° |
| 2026-04-20 16:37 | 33.52772 | 36.55175 | 5006 ft | 232 kts | 50° |
| 2026-04-20 16:37 | 33.53717 | 36.56746 | 4988 ft | 233 kts | 51° |
| 2026-04-20 16:37 | 33.54669 | 36.58322 | 4988 ft | 232 kts | 54° |
| 2026-04-20 16:38 | 33.55252 | 36.60033 | 4953 ft | 217 kts | 80° |
| 2026-04-20 16:38 | 33.55171 | 36.61792 | 4740 ft | 208 kts | 108° |
| 2026-04-20 16:38 | 33.54492 | 36.63242 | 4481 ft | 193 kts | 141° |
| 2026-04-20 16:38 | 33.53381 | 36.63999 | 4422 ft | 180 kts | 173° |
| 2026-04-20 16:39 | 33.52173 | 36.64018 | 4335 ft | 170 kts | 201° |
| 2026-04-20 16:39 | 33.51157 | 36.63403 | 4195 ft | 160 kts | 228° |
| 2026-04-20 16:39 | 33.50428 | 36.62463 | 4008 ft | 148 kts | 234° |
| 2026-04-20 16:39 | 33.49772 | 36.61575 | 3852 ft | 139 kts | 234° |
| 2026-04-20 16:40 | 33.49139 | 36.60718 | 3668 ft | 136 kts | 234° |
| 2026-04-20 16:40 | 33.48517 | 36.59877 | 3501 ft | 134 kts | 234° |
| 2026-04-20 16:40 | 33.47899 | 36.59042 | 3323 ft | 134 kts | 234° |
| 2026-04-20 16:40 | 33.47282 | 36.58208 | 3143 ft | 135 kts | 236° |
| 2026-04-20 16:41 | 33.46662 | 36.57371 | 2961 ft | 134 kts | 235° |
| 2026-04-20 16:41 | 33.46044 | 36.56537 | 2777 ft | 133 kts | 236° |
| 2026-04-20 16:41 | 33.45426 | 36.55703 | 2578 ft | 134 kts | 236° |
| 2026-04-20 16:41 | 33.44808 | 36.54872 | 2396 ft | 133 kts | 236° |
| 2026-04-20 16:42 | 33.44198 | 36.54044 | 2217 ft | 132 kts | 234° |
| 2026-04-20 16:42 | 33.43590 | 36.53227 | 2044 ft | 131 kts | 235° |
| 2026-04-20 16:42 | 33.43041 | 36.52474 | 2004 ft | 100 kts | 228° |
| 2026-04-20 16:42 | 33.42694 | 36.52005 | 2005 ft | 60 kts | 227° |
| 2026-04-20 16:43 | 33.42451 | 36.51688 | 2002 ft | 37 kts | 228° |
| 2026-04-20 16:43 | 33.42302 | 36.51538 | 2004 ft | 25 kts | 208° |
| 2026-04-20 16:43 | 33.42183 | 36.51483 | 2004 ft | 14 kts | 200° |
| 2026-04-20 16:43 | 33.42085 | 36.51440 | 2002 ft | 16 kts | 197° |
| 2026-04-20 16:44 | 33.41986 | 36.51358 | 2000 ft | 18 kts | 225° |
| 2026-04-20 16:44 | 33.41918 | 36.51263 | 2002 ft | 15 kts | 230° |
| 2026-04-20 16:44 | 33.41863 | 36.51230 | 2001 ft | 10 kts | 160° |
| 2026-04-20 16:44 | 33.41828 | 36.51268 | 2001 ft | 6 kts | 138° |
| 2026-04-20 16:45 | 33.41783 | 36.51312 | 2000 ft | 15 kts | 141° |
| 2026-04-20 16:45 | 33.41706 | 36.51388 | 2000 ft | 14 kts | 140° |
| 2026-04-20 16:45 | 33.41620 | 36.51407 | 2000 ft | 12 kts | 185° |
| 2026-04-20 16:45 | 33.41542 | 36.51400 | 2000 ft | 10 kts | 185° |
| 2026-04-20 16:46 | 33.41474 | 36.51394 | 2000 ft | 10 kts | 183° |
| 2026-04-20 16:46 | 33.41380 | 36.51392 | 1999 ft | 15 kts | 171° |
| 2026-04-20 16:46 | 33.41300 | 36.51456 | 2000 ft | 11 kts | 140° |
| 2026-04-20 16:46 | 33.41243 | 36.51442 | 1999 ft | 10 kts | 229° |
| 2026-04-20 16:47 | 33.41229 | 36.51423 | 2000 ft | 1 kts | 229° |
| 2026-04-20 16:47 | 33.41227 | 36.51420 | 2000 ft | 2 kts | 229° |
| 2026-04-20 16:47 | 33.41222 | 36.51413 | 2000 ft | 1 kts | 228° |
| 2026-04-20 16:47 | 33.41221 | 36.51412 | 2000 ft | 0 kts | 228° |